createdAt,value
2017-06-20T00:00:16.790Z,16.29
2017-06-20T00:01:05.872Z,16.26
2017-06-20T00:01:53.915Z,16.27
2017-06-20T00:02:41.953Z,16.29
2017-06-20T00:03:31.013Z,16.30
2017-06-20T00:04:18.990Z,16.29
2017-06-20T00:05:07.109Z,16.23
2017-06-20T00:05:56.236Z,16.23
2017-06-20T00:06:44.442Z,16.18
2017-06-20T00:07:32.253Z,16.16
2017-06-20T00:08:20.315Z,16.11
2017-06-20T00:09:14.320Z,16.10
2017-06-20T00:10:03.378Z,16.10
2017-06-20T00:10:51.407Z,16.12
2017-06-20T00:11:39.583Z,16.12
2017-06-20T00:12:28.516Z,16.12
2017-06-20T00:13:16.566Z,16.12
2017-06-20T00:14:04.594Z,16.14
2017-06-20T00:14:53.678Z,16.14
2017-06-20T00:15:41.686Z,16.10
2017-06-20T00:16:29.702Z,16.08
2017-06-20T00:17:18.796Z,16.04
2017-06-20T00:18:06.856Z,16.01
2017-06-20T00:18:54.876Z,16.06
2017-06-20T00:19:42.926Z,16.04
2017-06-20T00:20:31.989Z,16.00
2017-06-20T00:21:20.016Z,16.00
2017-06-20T00:22:09.303Z,16.00
2017-06-20T00:22:57.112Z,16.02
2017-06-20T00:23:45.189Z,16.02
2017-06-20T00:24:34.213Z,16.02
2017-06-20T00:25:22.274Z,16.00
2017-06-20T00:26:10.316Z,16.01
2017-06-20T00:26:59.346Z,16.08
2017-06-20T00:27:47.435Z,16.08
2017-06-20T00:28:35.644Z,16.11
2017-06-20T00:29:23.485Z,16.10
2017-06-20T00:30:12.565Z,16.04
2017-06-20T00:31:00.555Z,15.99
2017-06-20T00:31:49.898Z,15.98
2017-06-20T00:32:37.930Z,15.96
2017-06-20T00:33:25.732Z,15.97
2017-06-20T00:34:14.799Z,15.98
2017-06-20T00:35:02.828Z,15.97
2017-06-20T00:35:50.875Z,15.96
2017-06-20T00:36:39.888Z,15.91
2017-06-20T00:37:27.986Z,15.92
2017-06-20T00:38:15.985Z,15.94
2017-06-20T00:39:05.026Z,15.90
2017-06-20T00:39:53.081Z,15.91
2017-06-20T00:40:41.147Z,15.87
2017-06-20T00:41:30.215Z,15.87
2017-06-20T00:42:18.518Z,15.84
2017-06-20T00:43:06.264Z,15.84
2017-06-20T00:43:55.302Z,15.80
2017-06-20T00:44:43.393Z,15.73
2017-06-20T00:45:31.581Z,15.72
2017-06-20T00:46:20.493Z,15.66
2017-06-20T00:47:08.506Z,15.62
2017-06-20T00:47:56.579Z,15.58
2017-06-20T00:48:45.599Z,15.62
2017-06-20T00:49:33.663Z,15.63
2017-06-20T00:50:21.743Z,15.62
2017-06-20T00:51:10.787Z,15.60
2017-06-20T00:51:58.768Z,15.62
2017-06-20T00:52:46.835Z,15.60
2017-06-20T00:53:35.889Z,15.64
2017-06-20T00:54:23.983Z,15.76
2017-06-20T00:55:11.982Z,15.83
2017-06-20T00:56:01.024Z,15.80
2017-06-20T00:56:49.146Z,15.78
2017-06-20T00:57:37.438Z,15.76
2017-06-20T00:58:26.232Z,15.74
2017-06-20T00:59:14.217Z,15.72
2017-06-20T01:00:02.289Z,15.70
2017-06-20T01:00:50.321Z,15.72
2017-06-20T01:01:38.504Z,15.68
2017-06-20T01:02:38.821Z,15.69
2017-06-20T01:03:32.419Z,15.65
2017-06-20T01:04:33.451Z,15.64
2017-06-20T01:05:27.499Z,15.62
2017-06-20T01:06:27.538Z,15.58
2017-06-20T01:07:16.919Z,15.58
2017-06-20T01:08:05.663Z,15.54
2017-06-20T01:08:59.684Z,15.52
2017-06-20T01:09:53.697Z,15.50
2017-06-20T01:10:47.752Z,15.48
2017-06-20T01:11:35.813Z,15.50
2017-06-20T01:12:30.864Z,15.49
2017-06-20T01:13:19.906Z,15.50
2017-06-20T01:14:13.950Z,15.47
2017-06-20T01:15:13.985Z,15.43
2017-06-20T01:16:09.015Z,15.40
2017-06-20T01:17:03.086Z,15.41
2017-06-20T01:17:58.108Z,15.43
2017-06-20T01:18:53.225Z,15.40
2017-06-20T01:19:53.176Z,15.40
2017-06-20T01:20:48.206Z,15.41
2017-06-20T01:21:42.244Z,15.40
2017-06-20T01:22:37.620Z,15.38
2017-06-20T01:23:32.312Z,15.36
2017-06-20T01:24:26.393Z,15.33
2017-06-20T01:25:20.391Z,15.32
2017-06-20T01:26:14.447Z,15.35
2017-06-20T01:27:09.525Z,15.36
2017-06-20T01:28:04.629Z,15.35
2017-06-20T01:28:58.551Z,15.36
2017-06-20T01:29:53.599Z,15.34
2017-06-20T01:30:41.746Z,15.33
2017-06-20T01:31:36.699Z,15.31
2017-06-20T01:32:31.875Z,15.28
2017-06-20T01:33:26.802Z,15.26
2017-06-20T01:34:15.811Z,15.26
2017-06-20T01:35:04.229Z,15.25
2017-06-20T01:35:57.905Z,15.20
2017-06-20T01:36:46.975Z,15.20
2017-06-20T01:37:41.307Z,15.21
2017-06-20T01:38:35.082Z,15.21
2017-06-20T01:39:35.062Z,15.20
2017-06-20T01:40:30.107Z,15.17
2017-06-20T01:41:25.186Z,15.14
2017-06-20T01:42:19.293Z,15.14
2017-06-20T01:43:14.270Z,15.15
2017-06-20T01:44:09.347Z,15.18
2017-06-20T01:45:03.302Z,15.18
2017-06-20T01:45:52.402Z,15.18
2017-06-20T01:46:46.490Z,15.16
2017-06-20T01:47:35.489Z,15.18
2017-06-20T01:48:23.736Z,15.18
2017-06-20T01:49:11.547Z,15.18
2017-06-20T01:49:59.605Z,15.18
2017-06-20T01:50:48.670Z,15.18
2017-06-20T01:51:37.033Z,15.20
2017-06-20T01:52:24.713Z,15.19
2017-06-20T01:53:12.784Z,15.22
2017-06-20T01:54:01.971Z,15.22
2017-06-20T01:54:49.883Z,15.20
2017-06-20T01:55:38.924Z,15.19
2017-06-20T01:56:26.981Z,15.16
2017-06-20T01:57:15.002Z,15.13
2017-06-20T01:58:03.033Z,15.12
2017-06-20T01:58:51.109Z,15.08
2017-06-20T01:59:45.157Z,15.09
2017-06-20T02:00:34.196Z,15.12
2017-06-20T02:01:22.442Z,15.12
2017-06-20T02:02:11.289Z,15.11
2017-06-20T02:02:59.321Z,15.12
2017-06-20T02:03:47.381Z,15.14
2017-06-20T02:04:36.406Z,15.12
2017-06-20T02:05:24.491Z,15.12
2017-06-20T02:06:12.527Z,15.14
2017-06-20T02:07:01.598Z,15.12
2017-06-20T02:07:49.613Z,15.15
2017-06-20T02:08:37.811Z,15.16
2017-06-20T02:09:25.686Z,15.16
2017-06-20T02:10:14.757Z,15.23
2017-06-20T02:11:02.783Z,15.26
2017-06-20T02:11:52.049Z,15.30
2017-06-20T02:12:41.161Z,15.40
2017-06-20T02:13:29.911Z,15.37
2017-06-20T02:14:18.004Z,15.34
2017-06-20T02:15:12.001Z,15.34
2017-06-20T02:16:00.081Z,15.31
2017-06-20T02:16:48.178Z,15.32
2017-06-20T02:17:37.188Z,15.30
2017-06-20T02:18:31.180Z,15.30
2017-06-20T02:19:20.297Z,15.30
2017-06-20T02:20:09.292Z,15.31
2017-06-20T02:20:58.310Z,15.36
2017-06-20T02:21:58.392Z,15.38
2017-06-20T02:22:52.414Z,15.36
2017-06-20T02:23:52.453Z,15.37
2017-06-20T02:24:47.562Z,15.34
2017-06-20T02:25:42.510Z,15.30
2017-06-20T02:26:43.718Z,15.28
2017-06-20T02:27:43.530Z,15.26
2017-06-20T02:28:43.611Z,15.28
2017-06-20T02:29:37.684Z,15.24
2017-06-20T02:30:31.795Z,15.28
2017-06-20T02:31:26.805Z,15.26
2017-06-20T02:32:20.793Z,15.24
2017-06-20T02:33:20.813Z,15.30
2017-06-20T02:34:14.914Z,15.28
2017-06-20T02:35:08.905Z,15.22
2017-06-20T02:36:02.995Z,15.24
2017-06-20T02:36:58.305Z,15.20
2017-06-20T02:37:52.051Z,15.17
2017-06-20T02:38:46.065Z,15.10
2017-06-20T02:39:41.111Z,15.04
2017-06-20T02:40:35.194Z,15.04
2017-06-20T02:41:30.358Z,14.97
2017-06-20T02:42:24.274Z,14.97
2017-06-20T02:43:18.295Z,14.96
2017-06-20T02:44:13.320Z,14.94
2017-06-20T02:45:07.409Z,14.92
2017-06-20T02:46:02.425Z,14.94
2017-06-20T02:46:56.717Z,14.96
2017-06-20T02:47:51.490Z,14.98
2017-06-20T02:48:45.522Z,15.01
2017-06-20T02:49:39.582Z,15.02
2017-06-20T02:50:34.598Z,15.05
2017-06-20T02:51:34.655Z,15.09
2017-06-20T02:52:28.691Z,15.12
2017-06-20T02:53:22.739Z,15.16
2017-06-20T02:54:22.776Z,15.18
2017-06-20T02:55:22.782Z,15.20
2017-06-20T02:56:23.868Z,15.23
2017-06-20T02:57:18.892Z,15.21
2017-06-20T02:58:12.981Z,15.22
2017-06-20T02:59:12.957Z,15.23
2017-06-20T03:00:08.012Z,15.20
2017-06-20T03:01:03.002Z,15.22
2017-06-20T03:02:03.039Z,15.20
2017-06-20T03:02:58.096Z,15.24
2017-06-20T03:03:53.168Z,15.24
2017-06-20T03:04:47.194Z,15.26
2017-06-20T03:05:53.224Z,15.28
2017-06-20T03:06:47.293Z,15.32
2017-06-20T03:07:48.303Z,15.34
2017-06-20T03:08:43.327Z,15.35
2017-06-20T03:09:43.385Z,15.36
2017-06-20T03:10:32.403Z,15.39
2017-06-20T03:11:32.462Z,15.40
2017-06-20T03:12:20.472Z,15.45
2017-06-20T03:13:08.542Z,15.54
2017-06-20T03:14:09.576Z,15.52
2017-06-20T03:15:09.693Z,15.58
2017-06-20T03:16:09.678Z,15.59
2017-06-20T03:17:09.725Z,15.59
2017-06-20T03:17:58.793Z,15.66
2017-06-20T03:18:59.781Z,15.68
2017-06-20T03:19:59.827Z,15.70
2017-06-20T03:20:54.889Z,15.72
2017-06-20T03:21:55.238Z,15.66
2017-06-20T03:22:49.968Z,15.66
2017-06-20T03:23:44.995Z,15.69
2017-06-20T03:24:39.011Z,15.68
2017-06-20T03:25:39.068Z,15.68
2017-06-20T03:26:34.203Z,15.72
2017-06-20T03:27:23.128Z,15.79
2017-06-20T03:28:17.180Z,15.82
2017-06-20T03:29:11.281Z,15.83
2017-06-20T03:29:59.297Z,15.87
2017-06-20T03:31:00.333Z,15.93
2017-06-20T03:32:01.655Z,15.88
2017-06-20T03:33:01.398Z,15.88
2017-06-20T03:33:55.472Z,15.85
2017-06-20T03:34:44.469Z,15.81
2017-06-20T03:35:32.501Z,15.80
2017-06-20T03:36:21.576Z,15.86
2017-06-20T03:37:15.620Z,15.86
2017-06-20T03:38:03.672Z,15.85
2017-06-20T03:38:57.714Z,15.88
2017-06-20T03:39:57.775Z,15.95
2017-06-20T03:40:52.782Z,15.90
2017-06-20T03:41:41.853Z,15.85
2017-06-20T03:42:30.897Z,15.90
2017-06-20T03:43:18.910Z,15.89
2017-06-20T03:44:07.985Z,15.88
2017-06-20T03:44:56.023Z,15.90
2017-06-20T03:45:44.084Z,15.88
2017-06-20T03:46:33.118Z,15.87
2017-06-20T03:47:21.217Z,15.94
2017-06-20T03:48:15.289Z,15.95
2017-06-20T03:49:09.254Z,16.02
2017-06-20T03:50:10.327Z,16.01
2017-06-20T03:51:05.320Z,16.00
2017-06-20T03:51:53.401Z,16.00
2017-06-20T03:52:41.409Z,16.02
2017-06-20T03:53:36.471Z,15.92
2017-06-20T03:54:31.499Z,15.95
2017-06-20T03:55:31.557Z,15.94
2017-06-20T03:56:26.586Z,16.02
2017-06-20T03:57:21.604Z,15.94
2017-06-20T03:58:15.691Z,15.95
2017-06-20T03:59:15.716Z,15.93
2017-06-20T04:00:10.765Z,15.96
2017-06-20T04:01:04.854Z,15.98
2017-06-20T04:01:53.827Z,16.00
2017-06-20T04:02:42.963Z,15.99
2017-06-20T04:03:31.928Z,16.04
2017-06-20T04:04:21.134Z,16.02
2017-06-20T04:05:09.984Z,16.04
2017-06-20T04:06:05.069Z,16.05
2017-06-20T04:07:05.052Z,16.02
2017-06-20T04:08:00.177Z,16.04
2017-06-20T04:08:54.209Z,16.04
2017-06-20T04:09:48.267Z,16.06
2017-06-20T04:10:37.284Z,16.03
2017-06-20T04:11:31.328Z,16.13
2017-06-20T04:12:20.383Z,16.06
2017-06-20T04:13:15.389Z,16.05
2017-06-20T04:14:10.466Z,16.15
2017-06-20T04:15:11.503Z,16.15
2017-06-20T04:16:06.527Z,16.22
2017-06-20T04:17:00.898Z,16.19
2017-06-20T04:18:00.606Z,16.24
2017-06-20T04:19:00.626Z,16.31
2017-06-20T04:20:00.707Z,16.20
2017-06-20T04:20:55.795Z,16.25
2017-06-20T04:21:49.782Z,16.24
2017-06-20T04:22:43.800Z,16.27
2017-06-20T04:23:44.893Z,16.26
2017-06-20T04:24:39.903Z,16.25
2017-06-20T04:25:33.959Z,16.22
2017-06-20T04:26:34.992Z,16.23
2017-06-20T04:27:30.009Z,16.26
2017-06-20T04:28:24.082Z,16.24
2017-06-20T04:29:13.103Z,16.24
2017-06-20T04:30:08.144Z,16.26
2017-06-20T04:31:02.201Z,16.25
2017-06-20T04:31:56.573Z,16.26
2017-06-20T04:32:51.295Z,16.25
2017-06-20T04:33:39.310Z,16.33
2017-06-20T04:34:33.371Z,16.33
2017-06-20T04:35:27.377Z,16.34
2017-06-20T04:36:15.489Z,16.38
2017-06-20T04:37:03.800Z,16.41
2017-06-20T04:37:52.578Z,16.42
2017-06-20T04:38:40.629Z,16.49
2017-06-20T04:39:28.698Z,16.50
2017-06-20T04:40:17.736Z,16.52
2017-06-20T04:41:05.760Z,16.56
2017-06-20T04:41:53.798Z,16.58
2017-06-20T04:42:41.913Z,16.60
2017-06-20T04:43:30.895Z,16.59
2017-06-20T04:44:18.983Z,16.60
2017-06-20T04:45:13.003Z,16.60
2017-06-20T04:46:02.081Z,16.64
2017-06-20T04:46:57.360Z,16.63
2017-06-20T04:47:51.385Z,16.70
2017-06-20T04:48:51.251Z,16.78
2017-06-20T04:49:46.413Z,16.81
2017-06-20T04:50:41.275Z,16.93
2017-06-20T04:51:35.292Z,16.92
2017-06-20T04:52:30.372Z,16.89
2017-06-20T04:53:19.445Z,16.96
2017-06-20T04:54:14.451Z,17.10
2017-06-20T04:55:14.487Z,17.10
2017-06-20T04:56:09.516Z,17.14
2017-06-20T04:57:10.505Z,17.20
2017-06-20T04:58:05.575Z,17.27
2017-06-20T04:58:59.693Z,17.33
2017-06-20T04:59:47.716Z,17.41
2017-06-20T05:00:35.855Z,17.48
2017-06-20T05:01:30.780Z,17.56
2017-06-20T05:02:25.874Z,17.58
2017-06-20T05:03:19.906Z,17.70
2017-06-20T05:04:14.986Z,17.74
2017-06-20T05:05:04.006Z,17.80
2017-06-20T05:05:59.036Z,17.76
2017-06-20T05:06:48.079Z,17.77
2017-06-20T05:07:36.323Z,17.87
2017-06-20T05:08:36.428Z,17.98
2017-06-20T05:09:30.305Z,18.08
2017-06-20T05:10:24.280Z,18.10
2017-06-20T05:11:13.344Z,18.17
2017-06-20T05:12:08.458Z,18.25
2017-06-20T05:13:02.446Z,18.31
2017-06-20T05:14:02.471Z,18.28
2017-06-20T05:14:56.566Z,18.26
2017-06-20T05:15:50.599Z,18.33
2017-06-20T05:16:44.595Z,18.35
2017-06-20T05:17:32.676Z,18.42
2017-06-20T05:18:21.711Z,18.51
2017-06-20T05:19:09.820Z,18.65
2017-06-20T05:19:58.868Z,18.76
2017-06-20T05:20:46.979Z,18.84
2017-06-20T05:21:42.012Z,18.92
2017-06-20T05:22:30.985Z,19.12
2017-06-20T05:23:25.033Z,19.22
2017-06-20T05:24:13.129Z,19.34
2017-06-20T05:25:07.255Z,19.34
2017-06-20T05:26:02.196Z,19.26
2017-06-20T05:26:51.299Z,19.34
2017-06-20T05:27:45.316Z,19.36
2017-06-20T05:28:45.405Z,19.50
2017-06-20T05:29:46.444Z,19.65
2017-06-20T05:30:40.497Z,20.02
2017-06-20T05:31:41.529Z,20.32
2017-06-20T05:32:41.579Z,20.51
2017-06-20T05:33:41.630Z,20.72
2017-06-20T05:34:41.684Z,20.98
2017-06-20T05:35:35.779Z,21.00
2017-06-20T05:36:23.805Z,20.94
2017-06-20T05:37:17.883Z,21.16
2017-06-20T05:38:11.956Z,21.18
2017-06-20T05:39:06.090Z,21.28
2017-06-20T05:40:01.103Z,21.69
2017-06-20T05:40:55.191Z,21.83
2017-06-20T05:41:49.593Z,21.94
2017-06-20T05:42:38.614Z,21.95
2017-06-20T05:43:32.379Z,22.17
2017-06-20T05:44:26.647Z,22.34
2017-06-20T05:45:14.525Z,22.64
2017-06-20T05:46:03.607Z,22.67
2017-06-20T05:46:58.253Z,22.26
2017-06-20T05:47:47.036Z,22.25
2017-06-20T05:48:36.033Z,22.55
2017-06-20T05:49:31.079Z,23.02
2017-06-20T05:50:26.161Z,23.00
2017-06-20T05:51:15.240Z,22.79
2017-06-20T05:52:09.510Z,22.85
2017-06-20T05:52:58.379Z,22.83
2017-06-20T05:53:52.522Z,22.81
2017-06-20T05:54:41.612Z,22.88
2017-06-20T05:55:36.621Z,23.13
2017-06-20T05:56:31.672Z,23.19
2017-06-20T05:57:26.292Z,22.80
2017-06-20T05:58:25.861Z,22.80
2017-06-20T05:59:19.944Z,23.04
2017-06-20T06:00:14.127Z,23.12
2017-06-20T06:01:08.043Z,23.02
2017-06-20T06:02:03.256Z,23.26
2017-06-20T06:02:52.497Z,23.60
2017-06-20T06:03:40.113Z,24.00
2017-06-20T06:04:29.247Z,24.23
2017-06-20T06:05:24.227Z,24.62
2017-06-20T06:06:18.312Z,24.64
2017-06-20T06:07:07.691Z,24.82
2017-06-20T06:08:07.944Z,25.20
2017-06-20T06:09:08.741Z,25.17
2017-06-20T06:10:08.846Z,25.34
2017-06-20T06:11:03.893Z,25.02
2017-06-20T06:11:52.026Z,25.29
2017-06-20T06:12:52.058Z,25.31
2017-06-20T06:13:40.632Z,25.27
2017-06-20T06:14:29.156Z,25.31
2017-06-20T06:15:18.318Z,25.53
2017-06-20T06:16:07.346Z,25.42
2017-06-20T06:17:01.508Z,25.42
2017-06-20T06:17:55.530Z,25.00
2017-06-20T06:18:44.650Z,24.81
2017-06-20T06:19:38.666Z,24.66
2017-06-20T06:20:33.767Z,24.19
2017-06-20T06:21:33.858Z,24.37
2017-06-20T06:22:39.938Z,24.78
2017-06-20T06:23:28.909Z,24.74
2017-06-20T06:24:23.129Z,24.42
2017-06-20T06:25:17.137Z,24.52
2017-06-20T06:26:17.017Z,24.49
2017-06-20T06:27:18.101Z,24.44
2017-06-20T06:28:12.180Z,24.60
2017-06-20T06:29:06.261Z,24.40
2017-06-20T06:30:07.408Z,24.31
2017-06-20T06:31:07.386Z,24.40
2017-06-20T06:31:56.495Z,24.60
2017-06-20T06:32:45.516Z,24.88
2017-06-20T06:33:33.615Z,25.27
2017-06-20T06:34:27.688Z,25.59
2017-06-20T06:35:16.810Z,26.08
2017-06-20T06:36:10.827Z,26.12
2017-06-20T06:37:05.229Z,26.42
2017-06-20T06:37:54.141Z,26.94
2017-06-20T06:38:49.289Z,27.43
2017-06-20T06:39:43.147Z,27.71
2017-06-20T06:40:43.240Z,28.22
2017-06-20T06:41:31.313Z,28.51
2017-06-20T06:42:25.403Z,28.60
2017-06-20T06:43:13.480Z,28.08
2017-06-20T06:44:02.523Z,27.84
2017-06-20T06:44:51.595Z,27.66
2017-06-20T06:45:51.784Z,27.40
2017-06-20T06:46:51.795Z,27.43
2017-06-20T06:47:45.890Z,26.84
2017-06-20T06:48:34.903Z,26.48
2017-06-20T06:49:35.041Z,26.19
2017-06-20T06:50:29.097Z,26.11
2017-06-20T06:51:18.196Z,26.43
2017-06-20T06:52:12.216Z,26.57
2017-06-20T06:53:12.325Z,26.78
2017-06-20T06:54:06.426Z,27.08
2017-06-20T06:54:55.497Z,27.38
2017-06-20T06:55:49.584Z,27.45
2017-06-20T06:56:44.706Z,27.55
2017-06-20T06:57:38.821Z,27.56
2017-06-20T06:58:44.800Z,27.70
2017-06-20T06:59:39.898Z,28.01
2017-06-20T07:00:40.007Z,28.22
2017-06-20T07:01:40.045Z,28.10
2017-06-20T07:02:35.458Z,27.97
2017-06-20T07:03:30.194Z,27.80
2017-06-20T07:04:24.279Z,27.76
2017-06-20T07:05:18.346Z,27.85
2017-06-20T07:06:12.448Z,27.99
2017-06-20T07:07:12.487Z,28.14
2017-06-20T07:08:06.617Z,28.13
2017-06-20T07:09:01.674Z,28.20
2017-06-20T07:09:55.769Z,28.18
2017-06-20T07:10:49.917Z,28.63
2017-06-20T07:11:44.928Z,28.79
2017-06-20T07:12:40.155Z,29.06
2017-06-20T07:13:29.069Z,29.31
2017-06-20T07:14:18.163Z,29.44
2017-06-20T07:15:12.230Z,29.09
2017-06-20T07:16:06.316Z,28.82
2017-06-20T07:17:00.681Z,28.46
2017-06-20T07:17:49.474Z,28.44
2017-06-20T07:18:37.609Z,28.39
2017-06-20T07:19:26.654Z,28.32
2017-06-20T07:20:21.710Z,28.10
2017-06-20T07:21:22.803Z,28.13
2017-06-20T07:22:17.886Z,27.46
2017-06-20T07:23:07.001Z,27.38
2017-06-20T07:24:01.074Z,27.76
2017-06-20T07:24:56.153Z,27.95
2017-06-20T07:25:45.193Z,27.95
2017-06-20T07:26:46.470Z,27.82
2017-06-20T07:27:35.398Z,27.96
2017-06-20T07:28:29.481Z,28.16
2017-06-20T07:29:18.539Z,28.60
2017-06-20T07:30:07.630Z,28.82
2017-06-20T07:31:08.683Z,29.05
2017-06-20T07:32:04.091Z,28.78
2017-06-20T07:32:59.096Z,28.34
2017-06-20T07:33:48.180Z,28.42
2017-06-20T07:34:42.263Z,28.20
2017-06-20T07:35:37.318Z,28.12
2017-06-20T07:36:26.420Z,28.41
2017-06-20T07:37:21.503Z,28.68
2017-06-20T07:38:15.618Z,28.96
2017-06-20T07:39:09.634Z,29.08
2017-06-20T07:40:03.991Z,29.08
2017-06-20T07:40:53.035Z,29.04
2017-06-20T07:41:41.933Z,29.00
2017-06-20T07:42:41.989Z,28.80
2017-06-20T07:43:31.030Z,28.82
2017-06-20T07:44:25.130Z,28.83
2017-06-20T07:45:20.228Z,29.12
2017-06-20T07:46:15.308Z,29.43
2017-06-20T07:47:04.454Z,29.50
2017-06-20T07:48:04.269Z,29.34
2017-06-20T07:48:53.391Z,29.19
2017-06-20T07:49:53.421Z,29.26
2017-06-20T07:50:53.484Z,28.56
2017-06-20T07:51:54.602Z,28.30
2017-06-20T07:52:49.869Z,28.30
2017-06-20T07:53:43.764Z,28.46
2017-06-20T07:54:38.082Z,28.75
2017-06-20T07:55:32.931Z,29.06
2017-06-20T07:56:33.085Z,28.99
2017-06-20T07:57:28.052Z,28.62
2017-06-20T07:58:22.295Z,28.51
2017-06-20T07:59:17.208Z,28.28
2017-06-20T08:00:12.528Z,28.38
2017-06-20T08:01:06.407Z,28.57
2017-06-20T08:02:00.607Z,28.76
2017-06-20T08:02:55.776Z,29.04
2017-06-20T08:03:50.231Z,29.00
2017-06-20T08:04:43.950Z,28.68
2017-06-20T08:05:38.014Z,28.79
2017-06-20T08:06:38.053Z,29.20
2017-06-20T08:07:32.193Z,29.37
2017-06-20T08:08:21.240Z,29.58
2017-06-20T08:09:10.370Z,29.76
2017-06-20T08:10:05.419Z,29.77
2017-06-20T08:10:53.447Z,29.35
2017-06-20T08:11:48.635Z,29.36
2017-06-20T08:12:43.719Z,29.50
2017-06-20T08:13:43.737Z,29.73
2017-06-20T08:14:43.850Z,29.84
2017-06-20T08:15:32.981Z,29.61
2017-06-20T08:16:27.055Z,30.12
2017-06-20T08:17:22.067Z,30.04
2017-06-20T08:18:17.159Z,29.64
2017-06-20T08:19:11.314Z,29.00
2017-06-20T08:19:59.095Z,29.17
2017-06-20T08:20:59.404Z,29.14
2017-06-20T08:21:53.400Z,29.28
2017-06-20T08:22:53.649Z,29.53
2017-06-20T08:23:47.475Z,29.92
2017-06-20T08:24:48.688Z,29.90
2017-06-20T08:25:37.600Z,29.84
2017-06-20T08:26:32.329Z,29.74
2017-06-20T08:27:26.059Z,30.17
2017-06-20T08:28:20.085Z,30.16
2017-06-20T08:29:09.223Z,30.42
2017-06-20T08:29:57.382Z,30.26
2017-06-20T08:30:51.372Z,29.98
2017-06-20T08:31:45.482Z,30.03
2017-06-20T08:32:52.550Z,30.38
2017-06-20T08:33:46.591Z,30.44
2017-06-20T08:34:34.752Z,30.42
2017-06-20T08:35:22.669Z,30.59
2017-06-20T08:36:22.831Z,30.83
2017-06-20T08:37:12.253Z,30.62
2017-06-20T08:38:06.032Z,30.64
2017-06-20T08:39:01.097Z,30.88
2017-06-20T08:39:55.193Z,30.86
2017-06-20T08:40:49.033Z,30.52
2017-06-20T08:41:43.183Z,30.26
2017-06-20T08:42:37.211Z,30.14
2017-06-20T08:43:31.300Z,30.57
2017-06-20T08:44:20.386Z,30.85
2017-06-20T08:45:20.608Z,31.13
2017-06-20T08:46:14.768Z,31.10
2017-06-20T08:47:08.933Z,31.34
2017-06-20T08:48:08.966Z,31.28
2017-06-20T08:49:09.066Z,31.30
2017-06-20T08:50:04.103Z,31.04
2017-06-20T08:50:53.259Z,31.02
2017-06-20T08:51:42.312Z,30.78
2017-06-20T08:52:31.389Z,30.89
2017-06-20T08:53:25.540Z,30.78
2017-06-20T08:54:19.588Z,30.86
2017-06-20T08:55:08.639Z,30.40
2017-06-20T08:56:02.773Z,30.36
2017-06-20T08:56:56.854Z,30.59
2017-06-20T08:57:45.952Z,30.74
2017-06-20T08:58:39.998Z,30.86
2017-06-20T08:59:28.070Z,30.90
2017-06-20T09:00:22.244Z,31.30
2017-06-20T09:01:11.240Z,31.74
2017-06-20T09:02:05.391Z,31.70
2017-06-20T09:03:00.469Z,31.32
2017-06-20T09:03:49.522Z,30.62
2017-06-20T09:04:43.561Z,29.97
2017-06-20T09:05:38.590Z,29.95
2017-06-20T09:06:32.783Z,30.52
2017-06-20T09:07:21.624Z,30.82
2017-06-20T09:08:10.888Z,30.96
2017-06-20T09:09:06.052Z,31.10
2017-06-20T09:10:01.100Z,31.55
2017-06-20T09:11:02.205Z,31.37
2017-06-20T09:11:51.203Z,31.15
2017-06-20T09:12:39.384Z,31.51
2017-06-20T09:13:39.506Z,31.73
2017-06-20T09:14:34.545Z,31.92
2017-06-20T09:15:22.633Z,31.83
2017-06-20T09:16:11.724Z,31.47
2017-06-20T09:17:00.781Z,31.18
2017-06-20T09:17:49.895Z,31.40
2017-06-20T09:18:44.938Z,31.42
2017-06-20T09:19:39.076Z,31.18
2017-06-20T09:20:34.087Z,31.05
2017-06-20T09:21:28.225Z,31.11
2017-06-20T09:22:16.319Z,31.10
2017-06-20T09:23:10.276Z,30.52
2017-06-20T09:24:04.454Z,30.38
2017-06-20T09:25:05.583Z,30.47
2017-06-20T09:26:00.646Z,30.60
2017-06-20T09:26:55.760Z,30.40
2017-06-20T09:27:49.836Z,30.57
2017-06-20T09:28:38.919Z,30.72
2017-06-20T09:29:28.003Z,31.00
2017-06-20T09:30:22.088Z,30.82
2017-06-20T09:31:16.148Z,30.82
2017-06-20T09:32:16.290Z,30.50
2017-06-20T09:33:16.336Z,30.20
2017-06-20T09:34:10.439Z,30.12
2017-06-20T09:35:05.542Z,30.33
2017-06-20T09:35:54.601Z,30.48
2017-06-20T09:36:48.722Z,30.66
2017-06-20T09:37:43.825Z,30.52
2017-06-20T09:38:31.946Z,30.40
2017-06-20T09:39:25.960Z,30.37
2017-06-20T09:40:15.033Z,30.18
2017-06-20T09:41:03.143Z,30.06
2017-06-20T09:41:57.219Z,29.83
2017-06-20T09:42:46.306Z,29.92
2017-06-20T09:43:40.706Z,29.77
2017-06-20T09:44:29.470Z,29.93
2017-06-20T09:45:23.538Z,29.99
2017-06-20T09:46:12.635Z,29.93
2017-06-20T09:47:12.795Z,30.05
2017-06-20T09:48:07.800Z,30.16
2017-06-20T09:49:02.908Z,30.29
2017-06-20T09:49:57.997Z,30.36
2017-06-20T09:50:47.058Z,30.26
2017-06-20T09:51:41.182Z,30.26
2017-06-20T09:52:30.249Z,30.06
2017-06-20T09:53:19.379Z,30.18
2017-06-20T09:54:14.564Z,30.15
2017-06-20T09:55:09.493Z,30.03
2017-06-20T09:56:03.580Z,29.60
2017-06-20T09:56:58.627Z,29.56
2017-06-20T09:57:53.752Z,29.68
2017-06-20T09:58:53.843Z,29.75
2017-06-20T09:59:42.946Z,29.83
2017-06-20T10:00:37.011Z,29.98
2017-06-20T10:01:31.108Z,30.35
2017-06-20T10:02:26.226Z,30.34
2017-06-20T10:03:20.265Z,30.30
2017-06-20T10:04:14.359Z,30.52
2017-06-20T10:05:08.437Z,30.59
2017-06-20T10:05:57.741Z,30.58
2017-06-20T10:06:52.678Z,30.41
2017-06-20T10:07:46.724Z,30.51
2017-06-20T10:08:41.824Z,30.71
2017-06-20T10:09:30.855Z,30.72
2017-06-20T10:10:24.960Z,30.72
2017-06-20T10:11:13.083Z,30.32
2017-06-20T10:12:02.174Z,30.22
2017-06-20T10:12:56.269Z,29.94
2017-06-20T10:13:45.343Z,29.95
2017-06-20T10:14:40.440Z,30.23
2017-06-20T10:15:35.514Z,30.50
2017-06-20T10:16:30.583Z,30.39
2017-06-20T10:17:19.679Z,30.32
2017-06-20T10:18:13.767Z,30.24
2017-06-20T10:19:07.870Z,30.34
2017-06-20T10:19:56.957Z,30.08
2017-06-20T10:20:52.046Z,29.89
2017-06-20T10:21:41.171Z,29.74
2017-06-20T10:22:30.246Z,29.95
2017-06-20T10:23:24.304Z,29.85
2017-06-20T10:24:18.432Z,29.88
2017-06-20T10:25:07.445Z,29.72
2017-06-20T10:26:01.598Z,29.93
2017-06-20T10:26:55.659Z,30.28
2017-06-20T10:27:43.762Z,30.41
2017-06-20T10:28:38.833Z,30.57
2017-06-20T10:29:27.960Z,30.34
2017-06-20T10:30:23.018Z,30.24
2017-06-20T10:31:12.118Z,30.26
2017-06-20T10:32:07.198Z,30.35
2017-06-20T10:32:56.256Z,30.40
2017-06-20T10:33:45.368Z,30.38
2017-06-20T10:34:45.752Z,30.27
2017-06-20T10:35:46.542Z,30.27
2017-06-20T10:36:35.633Z,30.40
2017-06-20T10:37:30.726Z,30.53
2017-06-20T10:38:24.774Z,30.31
2017-06-20T10:39:18.874Z,30.48
2017-06-20T10:40:12.956Z,30.56
2017-06-20T10:41:13.049Z,30.74
2017-06-20T10:42:19.147Z,31.17
2017-06-20T10:43:19.249Z,30.78
2017-06-20T10:44:14.317Z,30.82
2017-06-20T10:45:09.439Z,30.63
2017-06-20T10:46:09.494Z,30.54
2017-06-20T10:47:10.658Z,30.49
2017-06-20T10:47:58.620Z,30.56
2017-06-20T10:48:52.755Z,30.47
2017-06-20T10:49:46.859Z,30.55
2017-06-20T10:50:40.950Z,30.56
2017-06-20T10:51:40.975Z,30.92
2017-06-20T10:52:30.149Z,31.07
2017-06-20T10:53:24.213Z,31.06
2017-06-20T10:54:19.262Z,31.07
2017-06-20T10:55:14.375Z,31.32
2017-06-20T10:56:03.446Z,31.40
2017-06-20T10:56:52.542Z,31.65
2017-06-20T10:57:40.638Z,32.03
2017-06-20T10:58:34.722Z,31.96
2017-06-20T10:59:35.793Z,31.90
2017-06-20T11:00:30.897Z,31.69
2017-06-20T11:01:24.943Z,31.93
2017-06-20T11:02:14.045Z,32.34
2017-06-20T11:03:02.140Z,32.78
2017-06-20T11:03:51.229Z,33.14
2017-06-20T11:04:46.361Z,33.45
2017-06-20T11:05:41.422Z,33.86
2017-06-20T11:06:36.544Z,34.23
2017-06-20T11:07:30.608Z,34.20
2017-06-20T11:08:24.707Z,34.07
2017-06-20T11:09:24.802Z,33.40
2017-06-20T11:10:13.885Z,33.17
2017-06-20T11:11:02.930Z,33.40
2017-06-20T11:11:57.093Z,33.04
2017-06-20T11:12:46.170Z,32.58
2017-06-20T11:13:35.225Z,32.24
2017-06-20T11:14:30.379Z,31.60
2017-06-20T11:15:24.454Z,31.34
2017-06-20T11:16:24.491Z,31.72
2017-06-20T11:17:19.637Z,32.15
2017-06-20T11:18:14.713Z,32.19
2017-06-20T11:19:08.740Z,32.36
2017-06-20T11:20:09.153Z,32.78
2017-06-20T11:21:02.966Z,32.96
2017-06-20T11:22:03.071Z,33.16
2017-06-20T11:23:03.153Z,32.86
2017-06-20T11:23:58.199Z,32.63